| time (UTC) | temp F | wind direction | speed knots | gust knots | rain 1hr in | rain 24hr in | rain mn in | humidity % | barometer mb |
| 20260507073705 | 46 | 221 | 2.6 | 5.2 | 0.00 | 0.00 | 0.00 | 73 | 1008.0 |
| 20260507073205 | 46 | 210 | 0.9 | 4.3 | 0.00 | 0.00 | 0.00 | 75 | 1007.9 |
| 20260507070705 | 45 | 208 | 0.9 | 2.6 | 0.00 | 0.00 | 0.00 | 76 | 1008.2 |
| 20260507070702 | 39 | 0 | 0.0 | 0.0 | 0.00 | 0.06 | 0.00 | 84 | 1006.0 |
| 20260507070205 | 45 | 202 | 0.9 | 2.6 | 0.00 | 0.00 | 0.00 | 77 | 1008.2 |
| 20260507070203 | 39 | 0 | 0.0 | 0.0 | 0.00 | 0.06 | 0.00 | 87 | 1006.1 |
| 20260507063705 | 42 | 61 | 0.0 | 0.9 | 0.00 | 0.00 | 0.00 | 81 | 1008.1 |
| 20260507063703 | 38 | 0 | 0.0 | 0.0 | 0.00 | 0.06 | 0.00 | 88 | 1006.0 |
| 20260507063205 | 42 | 61 | 0.0 | 1.7 | 0.00 | 0.00 | 0.00 | 81 | 1008.0 |
| 20260507060702 | 37 | 0 | 0.0 | 0.0 | 0.00 | 0.06 | 0.00 | 89 | 1005.8 |
| 20260507060205 | 38 | 44 | 0.9 | 2.6 | 0.00 | 0.00 | 0.00 | 86 | 1007.9 |
| 20260507060202 | 37 | 0 | 0.0 | 0.0 | 0.00 | 0.06 | 0.00 | 89 | 1005.7 |
| 20260507053702 | 37 | 0 | 0.0 | 0.0 | 0.00 | 0.06 | 0.00 | 89 | 1005.7 |
| 20260507053205 | 39 | 63 | 0.9 | 2.6 | 0.00 | 0.00 | 0.00 | 84 | 1007.8 |
| 20260507050704 | 38 | 65 | 0.9 | 2.6 | 0.00 | 0.00 | 0.00 | 85 | 1007.7 |
| 20260507050204 | 38 | 54 | 0.9 | 2.6 | 0.00 | 0.00 | 0.00 | 85 | 1007.7 |
| 20260507043702 | 37 | 0 | 0.0 | 0.0 | 0.00 | 0.06 | 0.00 | 87 | 1006.3 |
| 20260507043204 | 39 | 67 | 0.9 | 2.6 | 0.00 | 0.00 | 0.00 | 81 | 1008.0 |
| 20260507043202 | 37 | 0 | 0.0 | 0.0 | 0.00 | 0.06 | 0.00 | 87 | 1006.2 |
| 20260507040705 | 39 | 66 | 0.9 | 2.6 | 0.00 | 0.00 | 0.00 | 85 | 1008.1 |
| 20260507040703 | 38 | 0 | 0.0 | 0.0 | 0.00 | 0.06 | 0.00 | 86 | 1006.4 |
| 20260507040204 | 39 | 42 | 0.9 | 2.6 | 0.00 | 0.00 | 0.00 | 84 | 1008.1 |
| 20260507040202 | 38 | 0 | 0.0 | 0.0 | 0.00 | 0.06 | 0.00 | 86 | 1006.4 |
| 20260507033705 | 41 | 146 | 0.9 | 1.7 | 0.00 | 0.00 | 0.00 | 81 | 1008.3 |
| 20260507033203 | 38 | 0 | 0.0 | 0.0 | 0.00 | 0.06 | 0.00 | 86 | 1006.7 |
| 20260507030704 | 41 | 146 | 0.0 | 1.7 | 0.00 | 0.00 | 0.00 | 82 | 1008.4 |
| 20260507030204 | 41 | 87 | 0.9 | 4.3 | 0.00 | 0.00 | 0.00 | 83 | 1008.4 |
| 20260507030202 | 37 | 0 | 0.0 | 0.0 | 0.00 | 0.06 | 0.00 | 89 | 1006.8 |
| 20260507023704 | 41 | 80 | 1.7 | 2.6 | 0.00 | 0.00 | 0.00 | 83 | 1008.5 |
| 20260507023204 | 41 | 75 | 1.7 | 2.6 | 0.00 | 0.00 | 0.00 | 83 | 1008.5 |
| 20260507023202 | 37 | 0 | 0.0 | 0.0 | 0.00 | 0.06 | 0.00 | 89 | 1006.7 |
| 20260507020704 | 40 | 78 | 1.7 | 2.6 | 0.00 | 0.00 | 0.00 | 84 | 1008.8 |
| 20260507020204 | 41 | 68 | 1.7 | 4.3 | 0.00 | 0.00 | 0.00 | 83 | 1008.8 |
| 20260507013704 | 41 | 70 | 1.7 | 4.3 | 0.00 | 0.00 | 0.00 | 83 | 1009.1 |
| 20260507013204 | 40 | 74 | 1.7 | 5.2 | 0.00 | 0.00 | 0.00 | 83 | 1009.1 |
| 20260507010704 | 40 | 82 | 2.6 | 4.3 | 0.00 | 0.00 | 0.00 | 83 | 1009.4 |
| 20260507010204 | 40 | 83 | 1.7 | 5.2 | 0.00 | 0.00 | 0.00 | 82 | 1009.5 |
| 20260507010202 | 37 | 0 | 0.0 | 0.0 | 0.00 | 0.06 | 0.00 | 89 | 1007.6 |
| 20260507003704 | 40 | 80 | 2.6 | 5.2 | 0.00 | 0.00 | 0.00 | 83 | 1009.6 |
| 20260507003702 | 37 | 0 | 0.0 | 0.0 | 0.00 | 0.06 | 0.00 | 89 | 1007.7 |
| 20260507003204 | 41 | 82 | 2.6 | 5.2 | 0.00 | 0.00 | 0.00 | 82 | 1009.7 |
| 20260507000703 | 37 | 0 | 0.0 | 0.0 | 0.00 | 0.06 | 0.00 | 89 | 1007.9 |
| 20260507000205 | 41 | 92 | 1.7 | 5.2 | 0.00 | 0.00 | 0.00 | 82 | 1009.8 |
| 20260506233705 | 41 | 85 | 1.7 | 4.3 | 0.00 | 0.00 | 0.00 | 81 | 1010.0 |
| 20260506233205 | 41 | 87 | 1.7 | 4.3 | 0.00 | 0.00 | 0.00 | 81 | 1010.0 |
| 20260506233203 | 37 | 0 | 0.0 | 0.0 | 0.00 | 0.06 | 0.00 | 88 | 1008.2 |
| 20260506230703 | 37 | 0 | 0.0 | 0.0 | 0.00 | 0.06 | 0.00 | 87 | 1008.3 |
| 20260506230205 | 40 | 89 | 1.7 | 5.2 | 0.00 | 0.00 | 0.00 | 81 | 1010.0 |
| 20260506230203 | 37 | 0 | 0.0 | 0.0 | 0.00 | 0.06 | 0.00 | 88 | 1008.3 |
| 20260506223703 | 37 | 0 | 0.0 | 0.0 | 0.00 | 0.06 | 0.06 | 88 | 1008.6 |
| 20260506223205 | 40 | 72 | 1.7 | 4.3 | 0.00 | 0.00 | 0.00 | 81 | 1010.2 |
| 20260506220705 | 41 | 75 | 1.7 | 2.6 | 0.00 | 0.00 | 0.00 | 81 | 1010.3 |
| 20260506220703 | 37 | 0 | 0.0 | 0.0 | 0.00 | 0.06 | 0.06 | 88 | 1008.7 |
| 20260506220204 | 41 | 77 | 1.7 | 4.3 | 0.00 | 0.00 | 0.00 | 81 | 1010.3 |
| 20260506213704 | 40 | 78 | 2.6 | 4.3 | 0.00 | 0.00 | 0.00 | 82 | 1010.4 |
| 20260506213203 | 37 | 0 | 0.0 | 0.0 | 0.00 | 0.06 | 0.06 | 88 | 1008.8 |
| 20260506210704 | 41 | 67 | 1.7 | 4.3 | 0.00 | 0.00 | 0.00 | 80 | 1010.2 |
| 20260506210204 | 37 | 0 | 0.0 | 0.0 | 0.00 | 0.06 | 0.06 | 88 | 1008.8 |
| 20260506203705 | 41 | 45 | 2.6 | 2.6 | 0.00 | 0.00 | 0.00 | 83 | 1010.0 |
| 20260506203204 | 40 | 47 | 1.7 | 5.2 | 0.00 | 0.00 | 0.00 | 84 | 1010.0 |
| 20260506200705 | 40 | 46 | 2.6 | 5.2 | 0.00 | 0.00 | 0.00 | 85 | 1010.0 |
| 20260506200703 | 37 | 0 | 0.0 | 0.0 | 0.00 | 0.06 | 0.06 | 92 | 1008.6 |
| 20260506200205 | 40 | 33 | 1.7 | 5.2 | 0.00 | 0.00 | 0.00 | 85 | 1009.9 |
| 20260506200203 | 37 | 0 | 0.0 | 0.0 | 0.00 | 0.06 | 0.06 | 92 | 1008.7 |
| 20260506193705 | 42 | 45 | 2.6 | 4.3 | 0.00 | 0.00 | 0.00 | 81 | 1009.8 |
| 20260506193205 | 42 | 48 | 2.6 | 5.2 | 0.00 | 0.00 | 0.00 | 82 | 1009.7 |
| 20260506190704 | 44 | 42 | 2.6 | 5.2 | 0.00 | 0.00 | 0.00 | 78 | 1009.7 |
| 20260506190203 | 40 | 0 | 0.0 | 0.0 | 0.01 | 0.06 | 0.06 | 90 | 1008.2 |
| 20260506183705 | 47 | 32 | 2.6 | 6.1 | 0.00 | 0.00 | 0.00 | 73 | 1009.6 |
| 20260506183204 | 41 | 0 | 0.0 | 0.0 | 0.02 | 0.06 | 0.06 | 89 | 1008.4 |
| 20260506180705 | 48 | 62 | 4.3 | 6.1 | 0.00 | 0.00 | 0.00 | 67 | 1009.9 |
| 20260506180703 | 43 | 0 | 0.0 | 0.0 | 0.02 | 0.06 | 0.06 | 84 | 1008.4 |
| 20260506180204 | 49 | 63 | 0.9 | 5.2 | 0.00 | 0.00 | 0.00 | 67 | 1009.9 |
| 20260506173705 | 49 | 58 | 2.6 | 5.2 | 0.00 | 0.00 | 0.00 | 67 | 1010.1 |
| 20260506173204 | 49 | 62 | 2.6 | 7.0 | 0.00 | 0.00 | 0.00 | 67 | 1010.2 |
| 20260506170704 | 39 | 0 | 0.0 | 0.0 | 0.02 | 0.03 | 0.03 | 91 | 1009.1 |
| 20260506170205 | 39 | 0 | 0.0 | 0.0 | 0.02 | 0.03 | 0.03 | 92 | 1009.1 |
| 20260506163704 | 38 | 0 | 0.0 | 0.0 | 0.01 | 0.02 | 0.02 | 91 | 1009.2 |
| 20260506163204 | 38 | 0 | 0.0 | 0.0 | 0.01 | 0.02 | 0.02 | 91 | 1009.3 |
| 20260506160704 | 47 | 67 | 2.6 | 4.3 | 0.00 | 0.00 | 0.00 | 72 | 1010.5 |
| 20260506160204 | 46 | 351 | 2.6 | 7.0 | 0.00 | 0.00 | 0.00 | 72 | 1010.6 |
| 20260506160202 | 40 | 0 | 0.0 | 0.0 | 0.00 | 0.01 | 0.01 | 86 | 1009.1 |
| 20260506153204 | 47 | 288 | 0.0 | 2.6 | 0.00 | 0.00 | 0.00 | 70 | 1010.7 |
| 20260506153202 | 43 | 0 | 0.0 | 0.0 | 0.00 | 0.01 | 0.01 | 83 | 1009.4 |
| 20260506150704 | 48 | 177 | 0.9 | 2.6 | 0.00 | 0.00 | 0.00 | 68 | 1011.0 |
| 20260506150701 | 40 | 0 | 0.0 | 0.0 | 0.00 | 0.01 | 0.01 | 89 | 1009.8 |
| 20260506150204 | 48 | 174 | 0.0 | 2.6 | 0.00 | 0.00 | 0.00 | 69 | 1011.0 |
| 20260506150201 | 40 | 0 | 0.0 | 0.0 | 0.00 | 0.01 | 0.01 | 88 | 1009.9 |
| 20260506143705 | 47 | 146 | 0.0 | 2.6 | 0.00 | 0.00 | 0.00 | 69 | 1011.4 |
| 20260506143205 | 47 | 229 | 0.9 | 2.6 | 0.00 | 0.00 | 0.00 | 70 | 1011.4 |
| 20260506140705 | 47 | 233 | 0.9 | 2.6 | 0.00 | 0.00 | 0.00 | 72 | 1012.0 |
| 20260506140702 | 40 | 0 | 0.0 | 0.0 | 0.00 | 0.01 | 0.01 | 87 | 1010.5 |
| 20260506140205 | 46 | 49 | 0.0 | 2.6 | 0.00 | 0.00 | 0.00 | 71 | 1012.1 |
| 20260506140201 | 39 | 0 | 0.0 | 0.0 | 0.00 | 0.01 | 0.01 | 87 | 1010.4 |
| 20260506133705 | 46 | 96 | 0.9 | 2.6 | 0.00 | 0.00 | 0.00 | 74 | 1012.3 |
| 20260506133702 | 40 | 0 | 0.0 | 0.0 | 0.00 | 0.01 | 0.01 | 89 | 1010.6 |
| 20260506133201 | 39 | 0 | 0.0 | 0.0 | 0.00 | 0.01 | 0.01 | 91 | 1010.6 |
| 20260506130704 | 46 | 214 | 2.6 | 6.1 | 0.00 | 0.00 | 0.00 | 73 | 1012.3 |
| 20260506130701 | 38 | 0 | 0.0 | 0.0 | 0.00 | 0.01 | 0.01 | 91 | 1010.8 |
| 20260506130205 | 46 | 174 | 1.7 | 4.3 | 0.00 | 0.00 | 0.00 | 73 | 1012.4 |
| 20260506130202 | 38 | 0 | 0.0 | 0.0 | 0.00 | 0.01 | 0.01 | 90 | 1010.8 |
| 20260506123705 | 45 | 195 | 0.9 | 2.6 | 0.00 | 0.00 | 0.00 | 76 | 1012.3 |
| 20260506123702 | 38 | 0 | 0.0 | 0.0 | 0.00 | 0.01 | 0.01 | 90 | 1010.8 |
| 20260506123205 | 45 | 230 | 2.6 | 5.2 | 0.00 | 0.00 | 0.00 | 77 | 1012.4 |
| 20260506120702 | 38 | 0 | 0.0 | 0.0 | 0.00 | 0.01 | 0.01 | 92 | 1011.1 |
| 20260506120205 | 46 | 174 | 1.7 | 6.1 | 0.00 | 0.00 | 0.00 | 71 | 1012.4 |
| 20260506120202 | 38 | 0 | 0.0 | 0.0 | 0.00 | 0.01 | 0.01 | 91 | 1011.0 |
| 20260506113704 | 46 | 205 | 2.6 | 7.0 | 0.00 | 0.00 | 0.00 | 75 | 1012.4 |
| 20260506113204 | 46 | 189 | 2.6 | 7.0 | 0.00 | 0.00 | 0.00 | 76 | 1012.4 |
| 20260506113202 | 44 | 0 | 0.0 | 0.0 | 0.00 | 0.01 | 0.01 | 80 | 1011.0 |
| 20260506110704 | 44 | 190 | 2.6 | 4.3 | 0.00 | 0.00 | 0.00 | 78 | 1012.5 |
| 20260506110702 | 40 | 0 | 0.0 | 0.0 | 0.00 | 0.01 | 0.01 | 83 | 1011.0 |
| 20260506110205 | 44 | 174 | 1.7 | 6.1 | 0.00 | 0.00 | 0.00 | 78 | 1012.5 |
| 20260506110202 | 40 | 0 | 0.0 | 0.0 | 0.00 | 0.01 | 0.01 | 81 | 1011.0 |
| 20260506103705 | 43 | 225 | 1.7 | 4.3 | 0.00 | 0.00 | 0.00 | 82 | 1012.5 |
| 20260506103702 | 40 | 0 | 0.0 | 0.0 | 0.00 | 0.01 | 0.01 | 80 | 1011.0 |
| 20260506103205 | 43 | 170 | 1.7 | 4.3 | 0.00 | 0.00 | 0.00 | 81 | 1012.5 |
| 20260506103202 | 40 | 0 | 0.0 | 0.0 | 0.00 | 0.01 | 0.01 | 83 | 1011.1 |
| 20260506100704 | 44 | 230 | 1.7 | 4.3 | 0.00 | 0.00 | 0.00 | 80 | 1012.9 |
| 20260506100702 | 37 | 0 | 0.0 | 0.0 | 0.00 | 0.01 | 0.01 | 85 | 1011.1 |
| 20260506100204 | 45 | 229 | 0.9 | 7.0 | 0.00 | 0.00 | 0.00 | 77 | 1012.9 |
| 20260506100202 | 38 | 0 | 0.0 | 0.0 | 0.00 | 0.01 | 0.01 | 86 | 1011.2 |
| 20260506093702 | 38 | 0 | 0.0 | 0.0 | 0.00 | 0.01 | 0.01 | 83 | 1011.2 |
| 20260506093204 | 44 | 59 | 4.3 | 7.0 | 0.00 | 0.00 | 0.00 | 72 | 1012.8 |
| 20260506090702 | 38 | 0 | 0.0 | 0.0 | 0.00 | 0.01 | 0.01 | 86 | 1011.0 |
| 20260506090204 | 42 | 107 | 2.6 | 6.1 | 0.00 | 0.00 | 0.00 | 76 | 1012.9 |
| 20260506090202 | 38 | 0 | 0.0 | 0.0 | 0.00 | 0.01 | 0.01 | 88 | 1011.0 |
| 20260506083704 | 42 | 74 | 1.7 | 5.2 | 0.00 | 0.00 | 0.00 | 78 | 1012.9 |
| 20260506083702 | 36 | 0 | 0.0 | 0.0 | 0.00 | 0.01 | 0.01 | 92 | 1010.9 |
| 20260506083204 | 42 | 35 | 0.9 | 7.0 | 0.00 | 0.00 | 0.00 | 80 | 1012.9 |
| 20260506080704 | 40 | 67 | 2.6 | 5.2 | 0.00 | 0.00 | 0.00 | 81 | 1012.8 |
| 20260506080702 | 35 | 0 | 0.0 | 0.0 | 0.00 | 0.01 | 0.01 | 93 | 1010.9 |
| 20260506080204 | 39 | 47 | 3.5 | 7.0 | 0.00 | 0.00 | 0.00 | 80 | 1012.8 |
| 20260506080202 | 35 | 0 | 0.0 | 0.0 | 0.00 | 0.01 | 0.01 | 92 | 1010.8 |